Time;durP1;ratioP1;P1;durP2;ratioP2;P2;SDS_P1;SDS_P2;PMS_P1;PMS_P2;Temp;Humidity;BMP_temperature;BMP_pressure;BME280_temperature;BME280_humidity;BME280_pressure;Samples;Min_cycle;Max_cycle;Signal;HPM_P1;HPM_P2
2023/12/26 00:02:23;;;;;;;12.50;10.33;;;2.30;99.90;;;;;;5029751;28;20659;-61
2023/12/26 00:04:50;;;;;;;12.27;10.13;;;2.20;99.90;;;;;;5027101;28;20209;-61
2023/12/26 00:07:17;;;;;;;16.87;10.87;;;2.20;99.90;;;;;;5030281;28;20675;-61
2023/12/26 00:09:44;;;;;;;11.03;9.93;;;2.30;99.90;;;;;;5029256;28;20225;-61
2023/12/26 00:12:13;;;;;;;13.60;10.80;;;2.20;99.90;;;;;;5028912;28;20270;-60
2023/12/26 00:14:40;;;;;;;14.70;11.40;;;2.20;99.90;;;;;;5028915;28;20200;-61
2023/12/26 00:17:07;;;;;;;15.77;9.97;;;2.20;99.90;;;;;;5029952;28;20200;-61
2023/12/26 00:19:34;;;;;;;15.80;11.10;;;2.20;99.90;;;;;;5028858;28;20233;-61
2023/12/26 00:22:01;;;;;;;21.80;11.03;;;2.30;99.90;;;;;;5029704;28;20200;-61
2023/12/26 00:24:28;;;;;;;16.33;11.27;;;2.30;99.90;;;;;;5029381;28;20261;-61
2023/12/26 00:26:58;;;;;;;16.20;11.60;;;2.20;99.90;;;;;;5028821;28;20205;-61
2023/12/26 00:29:26;;;;;;;14.43;10.17;;;2.20;99.90;;;;;;5023343;28;20217;-61
2023/12/26 00:31:57;;;;;;;12.60;9.20;;;2.20;99.90;;;;;;5029475;28;20212;-61
2023/12/26 00:34:24;;;;;;;15.33;11.03;;;2.10;99.90;;;;;;5030363;28;20251;-61
2023/12/26 00:36:54;;;;;;;19.03;12.20;;;2.00;99.90;;;;;;5028225;28;20205;-61
2023/12/26 00:39:21;;;;;;;13.13;10.03;;;2.10;99.90;;;;;;5028382;28;20236;-61
2023/12/26 00:41:48;;;;;;;14.50;11.00;;;2.00;99.90;;;;;;5029081;28;20262;-61
2023/12/26 00:44:15;;;;;;;15.43;10.80;;;2.00;99.90;;;;;;5029313;28;20262;-61
2023/12/26 00:46:46;;;;;;;13.93;10.07;;;2.10;99.90;;;;;;5028499;28;20575;-61
2023/12/26 00:49:13;;;;;;;12.47;9.53;;;2.00;99.90;;;;;;5028606;28;20217;-61
2023/12/26 00:51:40;;;;;;;18.30;11.37;;;1.90;99.90;;;;;;5028748;28;20299;-61
2023/12/26 00:54:07;;;;;;;14.83;10.57;;;2.00;99.90;;;;;;5027264;28;20209;-61
2023/12/26 00:56:34;;;;;;;12.23;9.63;;;1.90;99.90;;;;;;5026398;28;20212;-61
2023/12/26 00:59:01;;;;;;;17.77;10.83;;;1.90;99.90;;;;;;5029991;28;20225;-61
2023/12/26 01:01:28;;;;;;;15.17;10.20;;;1.80;99.90;;;;;;5027660;28;20208;-61
2023/12/26 01:03:56;;;;;;;12.37;10.37;;;1.80;99.90;;;;;;5030539;28;20664;-61
2023/12/26 01:06:23;;;;;;;13.37;9.93;;;1.90;99.90;;;;;;5029652;28;20204;-61
2023/12/26 01:08:50;;;;;;;11.57;9.57;;;1.90;99.90;;;;;;5029773;28;20240;-61
2023/12/26 01:11:17;;;;;;;14.30;9.67;;;1.90;99.90;;;;;;5031092;28;20295;-61
2023/12/26 01:13:44;;;;;;;14.47;10.27;;;1.90;99.90;;;;;;5032571;28;20207;-60
2023/12/26 01:16:12;;;;;;;15.03;8.97;;;2.00;99.90;;;;;;5035587;28;20196;-61
2023/12/26 01:18:39;;;;;;;11.63;9.67;;;1.80;99.90;;;;;;5028233;28;20217;-61
2023/12/26 01:21:08;;;;;;;11.80;9.50;;;1.90;99.90;;;;;;5032315;28;20208;-61
2023/12/26 01:23:35;;;;;;;12.67;9.60;;;1.80;99.90;;;;;;5031841;28;20215;-61
2023/12/26 01:26:02;;;;;;;8.63;7.70;;;1.80;99.90;;;;;;5032496;28;20205;-60
2023/12/26 01:28:29;;;;;;;9.60;8.43;;;1.90;99.90;;;;;;5030991;28;20208;-60
2023/12/26 01:30:56;;;;;;;14.57;8.93;;;1.80;99.90;;;;;;5032032;28;20239;-61
2023/12/26 01:33:23;;;;;;;11.53;7.97;;;1.90;99.90;;;;;;5027510;28;20201;-63
2023/12/26 01:35:50;;;;;;;10.27;8.17;;;1.80;99.90;;;;;;5025490;28;20291;-61
2023/12/26 01:38:19;;;;;;;8.97;7.93;;;1.80;99.90;;;;;;5032054;28;20223;-60
2023/12/26 01:40:46;;;;;;;7.90;7.10;;;1.80;99.90;;;;;;5031345;28;20290;-61
2023/12/26 01:43:12;;;;;;;12.60;7.47;;;1.90;99.90;;;;;;5031953;28;20204;-61
2023/12/26 01:45:39;;;;;;;8.53;6.77;;;1.90;99.90;;;;;;5032089;28;20218;-61
2023/12/26 01:48:07;;;;;;;11.60;8.23;;;2.00;99.90;;;;;;5036922;28;20663;-63
2023/12/26 01:50:35;;;;;;;9.70;7.43;;;1.90;99.90;;;;;;5020575;28;20216;-61
2023/12/26 01:53:03;;;;;;;9.30;7.77;;;2.00;99.90;;;;;;5021130;28;20688;-62
2023/12/26 01:55:32;;;;;;;12.87;8.50;;;1.90;99.90;;;;;;5031107;28;20204;-61
2023/12/26 01:57:59;;;;;;;10.70;9.00;;;2.00;99.90;;;;;;5032070;28;20266;-61
2023/12/26 02:00:26;;;;;;;9.30;7.07;;;1.90;99.90;;;;;;5023989;28;20654;-62
2023/12/26 02:02:54;;;;;;;12.37;8.27;;;2.00;99.90;;;;;;5030537;28;20205;-61
2023/12/26 02:05:21;;;;;;;9.27;8.43;;;1.90;99.90;;;;;;5034019;28;20201;-62
2023/12/26 02:07:48;;;;;;;9.57;7.20;;;1.80;99.90;;;;;;5027602;28;20254;-62
2023/12/26 02:10:16;;;;;;;7.70;6.93;;;1.80;99.90;;;;;;5029485;28;20224;-61
2023/12/26 02:12:44;;;;;;;8.40;7.03;;;1.80;99.90;;;;;;5030060;28;20209;-62
2023/12/26 02:15:13;;;;;;;12.37;7.17;;;1.80;99.90;;;;;;5029725;28;20197;-62
2023/12/26 02:17:41;;;;;;;11.47;6.27;;;1.80;99.90;;;;;;5028007;28;20695;-61
2023/12/26 02:20:09;;;;;;;7.40;6.73;;;1.80;99.90;;;;;;5027062;28;20339;-61
2023/12/26 02:22:36;;;;;;;7.97;5.90;;;1.90;99.90;;;;;;5024087;28;20207;-61
2023/12/26 02:25:07;;;;;;;6.63;5.83;;;1.80;99.90;;;;;;5028173;28;20274;-61
2023/12/26 02:27:37;;;;;;;5.70;5.20;;;1.70;99.90;;;;;;5027859;28;20258;-61
2023/12/26 02:30:06;;;;;;;7.27;5.80;;;1.90;99.90;;;;;;5027224;28;20228;-61
2023/12/26 02:32:35;;;;;;;5.60;3.93;;;1.90;99.90;;;;;;5027965;28;20255;-62
2023/12/26 02:35:05;;;;;;;6.13;4.73;;;1.90;99.90;;;;;;5027867;28;20247;-61
2023/12/26 02:37:32;;;;;;;7.30;6.13;;;1.90;99.90;;;;;;5027911;28;20205;-62
2023/12/26 02:39:59;;;;;;;6.67;5.63;;;2.20;99.90;;;;;;5023466;28;20692;-61
2023/12/26 02:42:29;;;;;;;5.57;5.10;;;2.10;99.90;;;;;;5030071;28;20231;-61
2023/12/26 02:44:57;;;;;;;5.40;4.70;;;2.10;99.90;;;;;;5030585;28;20208;-61
2023/12/26 02:47:24;;;;;;;5.80;5.10;;;2.20;99.90;;;;;;5027907;28;20201;-61
2023/12/26 02:49:51;;;;;;;6.77;6.13;;;2.20;99.90;;;;;;5027517;28;20224;-62
2023/12/26 02:52:18;;;;;;;8.83;6.63;;;2.30;99.90;;;;;;5028731;28;20224;-62
2023/12/26 02:54:45;;;;;;;9.63;8.63;;;2.20;99.90;;;;;;5031148;28;20204;-61
2023/12/26 02:57:12;;;;;;;10.73;8.30;;;2.10;99.90;;;;;;5032190;28;20204;-62
2023/12/26 02:59:41;;;;;;;9.73;8.27;;;2.10;99.90;;;;;;5036619;28;20711;-62
2023/12/26 03:02:08;;;;;;;10.40;8.17;;;;;;;;;;5033488;28;20212;-62
2023/12/26 03:04:35;;;;;;;12.73;9.43;;;;;;;;;;5033491;23;20664;-61
2023/12/26 03:07:03;;;;;;;9.53;8.53;;;;;;;;;;5002157;28;20695;-61
2023/12/26 03:09:30;;;;;;;13.13;9.93;;;;;;;;;;4990790;28;20280;-61
2023/12/26 03:11:57;;;;;;;10.70;9.50;;;1.80;99.90;;;;;;4991743;28;20549;-61
2023/12/26 03:14:24;;;;;;;10.40;8.50;;;1.90;99.90;;;;;;4987850;28;20228;-61
2023/12/26 03:16:52;;;;;;;10.83;8.60;;;1.80;99.90;;;;;;4990041;28;20197;-59
2023/12/26 03:19:19;;;;;;;13.07;9.07;;;1.80;99.90;;;;;;4991176;28;20237;-59
2023/12/26 03:21:46;;;;;;;11.57;9.20;;;1.80;99.90;;;;;;4995541;28;20260;-59
2023/12/26 03:24:13;;;;;;;10.33;8.13;;;1.90;99.90;;;;;;4990793;28;20604;-59
2023/12/26 03:26:41;;;;;;;8.60;6.70;;;2.00;99.90;;;;;;4991024;28;20214;-59
2023/12/26 03:29:07;;;;;;;9.40;7.33;;;2.00;99.90;;;;;;4990252;28;20200;-59
2023/12/26 03:31:39;;;;;;;9.10;6.50;;;2.00;99.90;;;;;;4990437;28;20210;-59
2023/12/26 03:34:07;;;;;;;9.80;7.13;;;2.20;99.90;;;;;;4990900;28;20225;-59
2023/12/26 03:36:34;;;;;;;8.73;6.67;;;2.30;99.90;;;;;;4993517;28;20205;-60
2023/12/26 03:39:02;;;;;;;11.00;7.67;;;2.30;99.90;;;;;;4990222;28;20286;-59
2023/12/26 03:41:29;;;;;;;12.70;7.47;;;2.40;99.90;;;;;;4989274;28;20792;-59
2023/12/26 03:43:56;;;;;;;7.80;6.73;;;2.40;99.90;;;;;;4990682;28;20229;-59
2023/12/26 03:46:23;;;;;;;9.23;6.77;;;2.20;99.90;;;;;;4993543;28;20292;-59
2023/12/26 03:48:50;;;;;;;8.23;6.93;;;2.20;99.90;;;;;;4992437;28;20205;-59
2023/12/26 03:51:19;;;;;;;7.03;6.43;;;2.20;99.90;;;;;;4990345;28;20221;-59
2023/12/26 03:53:46;;;;;;;9.03;7.07;;;2.10;99.90;;;;;;4990270;28;20929;-59
2023/12/26 03:56:13;;;;;;;11.53;8.23;;;2.10;99.90;;;;;;4990250;28;20206;-59
2023/12/26 03:58:40;;;;;;;8.27;6.93;;;2.20;99.90;;;;;;4989539;28;20559;-59
2023/12/26 04:01:07;;;;;;;12.57;7.80;;;2.20;99.90;;;;;;4993660;28;20341;-59
2023/12/26 04:03:34;;;;;;;11.70;8.10;;;2.10;99.90;;;;;;4989068;28;20307;-59
2023/12/26 04:06:01;;;;;;;12.43;8.33;;;2.10;99.90;;;;;;4989481;28;20681;-59
2023/12/26 04:08:29;;;;;;;12.03;7.63;;;2.00;99.90;;;;;;4989978;28;20648;-59
2023/12/26 04:10:56;;;;;;;15.53;7.73;;;2.00;99.90;;;;;;4990065;28;20205;-59
2023/12/26 04:13:23;;;;;;;12.70;6.87;;;2.00;99.90;;;;;;5003437;28;20220;-60
2023/12/26 04:15:50;;;;;;;7.83;6.47;;;2.10;99.90;;;;;;5004305;28;20604;-59
2023/12/26 04:18:17;;;;;;;7.03;6.10;;;2.00;99.90;;;;;;5002533;28;20201;-59
2023/12/26 04:20:44;;;;;;;7.87;7.07;;;1.90;99.90;;;;;;5004528;28;20705;-59
2023/12/26 04:23:10;;;;;;;8.33;7.57;;;2.00;99.90;;;;;;5000431;28;20229;-59
2023/12/26 04:25:39;;;;;;;8.07;7.23;;;2.10;99.90;;;;;;4999950;28;20680;-59
2023/12/26 04:28:06;;;;;;;8.20;7.40;;;2.10;99.90;;;;;;5003489;28;20590;-59
2023/12/26 04:30:33;;;;;;;9.50;6.30;;;2.00;99.90;;;;;;4997960;28;20198;-59
2023/12/26 04:33:00;;;;;;;11.40;7.47;;;2.00;99.90;;;;;;4993427;28;20240;-59
2023/12/26 04:35:27;;;;;;;10.07;7.50;;;2.00;99.90;;;;;;4996133;28;20206;-59
2023/12/26 04:37:54;;;;;;;9.13;7.33;;;1.90;99.90;;;;;;5000560;28;20210;-59
2023/12/26 04:40:21;;;;;;;7.13;6.50;;;1.90;99.90;;;;;;5011531;28;20225;-59
2023/12/26 04:42:50;;;;;;;8.67;6.87;;;1.90;99.90;;;;;;5012594;28;20209;-59
2023/12/26 04:45:17;;;;;;;10.00;7.10;;;2.00;99.90;;;;;;5012646;28;20205;-59
2023/12/26 04:47:44;;;;;;;9.33;8.33;;;2.00;99.90;;;;;;5012607;28;20259;-59
2023/12/26 04:50:11;;;;;;;9.20;7.83;;;1.90;99.90;;;;;;5001478;28;20742;-59
2023/12/26 04:52:38;;;;;;;9.07;7.10;;;1.90;99.90;;;;;;4989270;28;20207;-59
2023/12/26 04:55:06;;;;;;;8.10;6.80;;;1.90;99.90;;;;;;5012421;28;20283;-59
2023/12/26 04:57:33;;;;;;;8.60;7.40;;;1.90;99.90;;;;;;5001287;28;20256;-59
2023/12/26 05:00:02;;;;;;;8.97;7.00;;;2.00;99.90;;;;;;4994453;28;20597;-59
2023/12/26 05:02:29;;;;;;;7.13;6.40;;;2.00;99.90;;;;;;4985069;28;20207;-59
2023/12/26 05:04:56;;;;;;;9.53;7.73;;;2.00;99.90;;;;;;5006139;28;20257;-59
2023/12/26 05:07:23;;;;;;;9.63;6.30;;;2.00;99.90;;;;;;5002271;28;20209;-60
2023/12/26 05:09:50;;;;;;;10.03;7.00;;;2.10;99.90;;;;;;5001712;28;20202;-59
2023/12/26 05:12:17;;;;;;;8.63;6.00;;;2.00;99.90;;;;;;5001697;28;20213;-59
2023/12/26 05:14:44;;;;;;;7.03;5.97;;;2.10;99.90;;;;;;5001592;28;20226;-59
2023/12/26 05:17:14;;;;;;;7.93;5.70;;;2.10;99.90;;;;;;4993725;28;20317;-59
2023/12/26 05:19:41;;;;;;;7.73;6.93;;;2.00;99.90;;;;;;4992543;28;20229;-59
2023/12/26 05:22:08;;;;;;;7.70;6.30;;;2.10;99.90;;;;;;4992712;28;20218;-59
2023/12/26 05:24:36;;;;;;;8.10;6.33;;;2.00;99.90;;;;;;4991900;28;20355;-59
2023/12/26 05:27:03;;;;;;;6.83;5.87;;;2.10;99.90;;;;;;4991974;28;20206;-59
2023/12/26 05:29:30;;;;;;;7.03;6.33;;;2.00;99.90;;;;;;4991811;28;20210;-59
2023/12/26 05:32:00;;;;;;;10.00;5.80;;;1.90;99.90;;;;;;4994713;28;20256;-59
2023/12/26 05:34:28;;;;;;;11.27;6.87;;;1.90;99.90;;;;;;4997229;28;20224;-59
2023/12/26 05:36:59;;;;;;;8.50;7.17;;;2.00;99.90;;;;;;4996171;28;20726;-59
2023/12/26 05:39:26;;;;;;;8.27;7.00;;;2.00;99.90;;;;;;4991082;28;20236;-59
2023/12/26 05:41:53;;;;;;;7.07;5.60;;;1.90;99.90;;;;;;4993338;28;20201;-59
2023/12/26 05:44:20;;;;;;;8.00;5.83;;;1.90;99.90;;;;;;5002526;28;20288;-59
2023/12/26 05:46:47;;;;;;;6.67;5.70;;;2.00;99.90;;;;;;4996738;28;20944;-59
2023/12/26 05:49:14;;;;;;;8.50;5.90;;;1.90;99.90;;;;;;5002688;28;20256;-59
2023/12/26 05:51:43;;;;;;;9.70;6.07;;;1.90;99.90;;;;;;4991506;28;20217;-59
2023/12/26 05:54:10;;;;;;;6.80;5.93;;;2.10;99.90;;;;;;4991565;28;20232;-59
2023/12/26 05:56:37;;;;;;;10.33;7.97;;;2.00;99.90;;;;;;4991869;28;20575;-59
2023/12/26 05:59:04;;;;;;;7.03;6.23;;;2.00;99.90;;;;;;4991148;28;20209;-59
2023/12/26 06:01:32;;;;;;;7.83;7.13;;;2.10;99.90;;;;;;4991557;28;20252;-59
2023/12/26 06:03:59;;;;;;;10.37;7.20;;;2.00;99.90;;;;;;4991530;28;20237;-59
2023/12/26 06:06:26;;;;;;;7.23;6.60;;;2.00;99.90;;;;;;4991745;28;20206;-59
2023/12/26 06:08:54;;;;;;;6.83;5.67;;;2.00;99.90;;;;;;4991387;28;20616;-59
2023/12/26 06:11:21;;;;;;;9.93;6.73;;;2.00;99.90;;;;;;4991624;28;20206;-59
2023/12/26 06:13:48;;;;;;;8.00;6.53;;;2.00;99.90;;;;;;4991822;28;20636;-59
2023/12/26 06:16:15;;;;;;;7.27;5.60;;;2.10;99.90;;;;;;4991315;28;20216;-58
2023/12/26 06:18:42;;;;;;;6.77;6.03;;;2.00;99.90;;;;;;4989976;28;20236;-62
2023/12/26 06:21:09;;;;;;;7.77;6.00;;;2.00;99.90;;;;;;4989947;28;20225;-61
2023/12/26 06:23:36;;;;;;;6.20;5.60;;;2.00;99.90;;;;;;4991290;28;20234;-61
2023/12/26 06:26:05;;;;;;;7.07;5.17;;;2.10;99.90;;;;;;4991298;28;20648;-60
2023/12/26 06:28:32;;;;;;;5.53;4.97;;;2.10;99.90;;;;;;4995165;28;20213;-61
2023/12/26 06:30:59;;;;;;;5.93;5.27;;;2.20;99.90;;;;;;4995431;28;20293;-61
2023/12/26 06:33:26;;;;;;;13.53;8.97;;;2.10;99.90;;;;;;4995279;28;20221;-60
2023/12/26 06:35:53;;;;;;;10.20;9.07;;;2.20;99.90;;;;;;4994562;28;20225;-61
2023/12/26 06:38:20;;;;;;;10.60;8.37;;;2.20;99.90;;;;;;4996348;28;20613;-60
2023/12/26 06:40:47;;;;;;;11.37;7.97;;;2.00;99.90;;;;;;4995586;28;20241;-60
2023/12/26 06:43:15;;;;;;;10.82;9.70;;;2.00;99.90;;;;;;4993172;28;20804;-58
2023/12/26 06:45:43;;;;;;;11.63;8.37;;;2.00;99.90;;;;;;4994484;28;20201;-60
2023/12/26 06:48:10;;;;;;;10.47;9.20;;;2.10;99.90;;;;;;4992447;28;20297;-61
2023/12/26 06:50:37;;;;;;;8.73;7.93;;;1.90;99.90;;;;;;4994499;28;20197;-61
2023/12/26 06:53:05;;;;;;;10.53;7.87;;;1.90;99.90;;;;;;4994939;28;20225;-61
2023/12/26 06:55:32;;;;;;;6.87;6.23;;;1.80;99.90;;;;;;4998720;28;20216;-61
2023/12/26 06:57:59;;;;;;;11.47;7.90;;;1.90;99.90;;;;;;4994278;28;20210;-61
2023/12/26 07:00:27;;;;;;;13.67;9.97;;;1.70;99.90;;;;;;4994400;28;20649;-61
2023/12/26 07:02:55;;;;;;;11.70;9.90;;;1.80;99.90;;;;;;4994653;28;20670;-62
2023/12/26 07:05:22;;;;;;;13.83;8.80;;;1.90;99.90;;;;;;4994959;28;20652;-61
2023/12/26 07:07:49;;;;;;;10.20;7.87;;;1.90;99.90;;;;;;4994061;28;20294;-60
2023/12/26 07:10:16;;;;;;;11.60;7.67;;;1.90;99.90;;;;;;4993661;28;20264;-60
2023/12/26 07:12:43;;;;;;;9.40;7.50;;;1.80;99.90;;;;;;4994391;28;20717;-60
2023/12/26 07:15:10;;;;;;;8.93;6.63;;;2.00;99.90;;;;;;4994572;28;20214;-60
2023/12/26 07:17:39;;;;;;;7.37;6.67;;;1.90;99.90;;;;;;4993055;28;20209;-60
2023/12/26 07:20:08;;;;;;;7.30;6.60;;;2.00;99.90;;;;;;4992361;28;20222;-59
2023/12/26 07:22:35;;;;;;;10.03;6.57;;;1.90;99.90;;;;;;4995488;28;20205;-59
2023/12/26 07:25:02;;;;;;;10.10;7.00;;;2.00;99.90;;;;;;4999318;28;20223;-61
2023/12/26 07:27:29;;;;;;;8.53;7.63;;;2.00;99.90;;;;;;4993994;28;20244;-62
2023/12/26 07:29:56;;;;;;;10.30;9.20;;;2.10;99.90;;;;;;4994128;28;20209;-61
2023/12/26 07:32:23;;;;;;;8.83;7.93;;;2.10;99.90;;;;;;4994137;28;20205;-62
2023/12/26 07:34:52;;;;;;;10.80;8.10;;;2.00;99.90;;;;;;4992112;28;20308;-59
2023/12/26 07:37:19;;;;;;;9.43;8.20;;;2.00;99.90;;;;;;4991417;28;20205;-62
2023/12/26 07:39:46;;;;;;;11.43;9.33;;;2.10;99.90;;;;;;4993870;28;20206;-60
2023/12/26 07:42:13;;;;;;;12.53;7.47;;;2.10;99.90;;;;;;4993402;28;20218;-59
2023/12/26 07:44:40;;;;;;;8.30;6.70;;;2.10;99.90;;;;;;4993779;28;20283;-58
2023/12/26 07:47:07;;;;;;;9.63;7.67;;;1.90;99.90;;;;;;4995404;28;20210;-61
2023/12/26 07:49:34;;;;;;;8.07;7.37;;;2.10;99.90;;;;;;5001123;28;20568;-60
2023/12/26 07:52:02;;;;;;;9.13;7.97;;;2.10;99.90;;;;;;4996789;28;20202;-59
2023/12/26 07:54:29;;;;;;;9.13;7.67;;;2.10;99.90;;;;;;4988139;28;20607;-59
2023/12/26 07:57:00;;;;;;;7.43;6.63;;;2.30;99.90;;;;;;4994128;28;20283;-60
2023/12/26 07:59:27;;;;;;;8.57;7.50;;;2.20;99.90;;;;;;4991814;28;20669;-61
2023/12/26 08:01:57;;;;;;;7.77;6.20;;;2.20;99.90;;;;;;4993018;28;20648;-60
2023/12/26 08:04:24;;;;;;;8.43;7.63;;;2.40;99.90;;;;;;4987451;28;20263;-60
2023/12/26 08:06:55;;;;;;;7.27;6.67;;;2.30;99.90;;;;;;4989662;28;20206;-60
2023/12/26 08:09:24;;;;;;;7.33;6.57;;;2.50;99.90;;;;;;4990688;28;20295;-62
2023/12/26 08:11:51;;;;;;;10.10;8.30;;;2.60;99.90;;;;;;4989802;28;20225;-64
2023/12/26 08:14:18;;;;;;;10.17;7.37;;;2.70;99.90;;;;;;4991986;28;20293;-62
2023/12/26 08:16:45;;;;;;;10.70;7.60;;;2.60;99.90;;;;;;4987501;28;20640;-60
2023/12/26 08:19:12;;;;;;;8.00;7.13;;;;;;;;;;4992216;28;20360;-64
2023/12/26 08:21:40;;;;;;;9.83;7.77;;;;;;;;;;4989402;28;20229;-61
2023/12/26 08:24:08;;;;;;;8.33;7.53;;;2.80;99.90;;;;;;5000848;28;20233;-62
2023/12/26 08:26:36;;;;;;;8.93;8.07;;;;;;;;;;4992168;28;20209;-61
2023/12/26 08:29:04;;;;;;;13.70;10.33;;;;;;;;;;4992576;28;20210;-63
2023/12/26 08:31:31;;;;;;;12.07;8.53;;;;;;;;;;4993194;28;20198;-64
2023/12/26 08:33:58;;;;;;;13.80;9.93;;;;;;;;;;4990094;28;20229;-65
2023/12/26 08:36:26;;;;;;;8.87;8.07;;;;;;;;;;4990786;28;20237;-64
2023/12/26 08:38:53;;;;;;;11.73;10.20;;;3.50;99.90;;;;;;4991521;28;20214;-63
2023/12/26 08:41:20;;;;;;;13.10;10.73;;;3.50;99.90;;;;;;4993108;28;20225;-63
2023/12/26 08:43:48;;;;;;;15.60;10.47;;;3.80;99.90;;;;;;4996438;28;20352;-64
2023/12/26 08:46:16;;;;;;;12.07;10.77;;;3.80;99.90;;;;;;4996352;28;20228;-63
2023/12/26 08:48:43;;;;;;;15.57;13.50;;;3.90;99.90;;;;;;4996921;28;20625;-63
2023/12/26 08:51:10;;;;;;;24.13;16.07;;;3.90;99.90;;;;;;4986831;28;20213;-64
2023/12/26 08:53:37;;;;;;;35.57;21.73;;;4.10;99.90;;;;;;4979554;28;20230;-66
2023/12/26 08:56:05;;;;;;;37.03;20.33;;;4.20;99.90;;;;;;4984380;28;20209;-61
2023/12/26 08:58:32;;;;;;;18.20;16.13;;;4.10;99.90;;;;;;4987223;28;20268;-62
2023/12/26 09:01:01;;;;;;;19.37;15.17;;;4.30;99.90;;;;;;4989183;28;20308;-62
2023/12/26 09:03:28;;;;;;;22.43;16.50;;;4.40;99.90;;;;;;4945815;28;1367708;-61
2023/12/26 09:05:56;;;;;;;19.13;15.97;;;4.50;99.90;;;;;;4991427;28;20268;-61
2023/12/26 09:08:23;;;;;;;17.57;15.07;;;4.60;99.90;;;;;;4992977;28;20256;-61
2023/12/26 09:10:50;;;;;;;14.77;12.90;;;4.70;99.90;;;;;;4991927;28;20210;-61
2023/12/26 09:13:20;;;;;;;21.73;16.27;;;4.80;99.90;;;;;;4989812;28;20457;-61
2023/12/26 09:15:48;;;;;;;15.03;13.30;;;4.80;99.90;;;;;;4990450;28;20460;-61
2023/12/26 09:18:17;;;;;;;12.33;11.03;;;5.00;99.90;;;;;;4993084;28;20339;-61
2023/12/26 09:20:44;;;;;;;9.93;8.80;;;5.10;99.90;;;;;;4996595;28;20640;-61
2023/12/26 09:23:12;;;;;;;8.57;7.80;;;5.10;99.90;;;;;;4999398;28;20233;-62
2023/12/26 09:25:40;;;;;;;9.13;8.10;;;5.20;99.90;;;;;;5021030;22;20312;-61
2023/12/26 09:28:08;;;;;;;14.50;8.20;;;5.30;99.90;;;;;;5035158;28;20240;-61
2023/12/26 09:30:35;;;;;;;12.13;9.00;;;5.30;99.90;;;;;;5026266;28;20242;-61
2023/12/26 09:33:02;;;;;;;11.40;8.03;;;5.40;99.90;;;;;;5041097;28;20231;-61
2023/12/26 09:35:31;;;;;;;11.50;7.33;;;5.50;99.90;;;;;;5031517;28;20251;-60
2023/12/26 09:37:58;;;;;;;8.93;7.60;;;5.50;99.90;;;;;;5031688;28;20205;-61
2023/12/26 09:40:25;;;;;;;8.80;6.73;;;5.60;99.90;;;;;;5030638;28;20292;-61
2023/12/26 09:42:54;;;;;;;7.53;6.80;;;5.70;99.90;;;;;;5030519;28;20197;-61
2023/12/26 09:45:23;;;;;;;6.57;6.07;;;5.80;99.90;;;;;;5034059;28;20665;-61
2023/12/26 09:47:50;;;;;;;6.67;6.17;;;6.00;99.90;;;;;;5043238;28;20207;-61
2023/12/26 09:50:17;;;;;;;6.57;5.97;;;6.00;99.90;;;;;;5034435;28;20210;-61
2023/12/26 09:52:52;;;;;;;8.53;7.20;;;6.10;99.90;;;;;;5035156;28;20211;-61
2023/12/26 09:55:20;;;;;;;8.13;7.33;;;6.20;99.90;;;;;;5032456;28;20284;-61
2023/12/26 09:57:48;;;;;;;6.97;6.27;;;6.30;99.90;;;;;;5032350;28;20750;-61
2023/12/26 10:00:15;;;;;;;6.70;6.20;;;6.40;99.90;;;;;;5035968;28;20195;-61
2023/12/26 10:02:43;;;;;;;8.40;7.53;;;6.40;99.90;;;;;;5037447;28;20233;-61
2023/12/26 10:05:10;;;;;;;7.97;7.17;;;6.50;99.90;;;;;;5031332;28;20212;-61
2023/12/26 10:07:38;;;;;;;7.50;6.80;;;6.50;99.90;;;;;;5038488;28;20230;-61
2023/12/26 10:10:07;;;;;;;8.23;7.47;;;6.60;99.90;;;;;;5032119;28;20204;-61
2023/12/26 10:12:35;;;;;;;6.13;5.73;;;6.70;99.90;;;;;;5024130;28;20213;-61
2023/12/26 10:15:04;;;;;;;7.53;6.80;;;6.90;99.90;;;;;;5031441;28;20232;-61
2023/12/26 10:17:32;;;;;;;7.67;7.00;;;7.00;99.90;;;;;;5036601;28;20247;-61
2023/12/26 10:19:59;;;;;;;7.40;6.60;;;6.70;99.90;;;;;;5030687;28;20223;-61
2023/12/26 10:22:27;;;;;;;8.03;7.13;;;6.60;99.90;;;;;;5039802;28;20260;-61
2023/12/26 10:24:55;;;;;;;7.70;6.40;;;6.60;99.90;;;;;;5035483;28;20262;-61
2023/12/26 10:27:24;;;;;;;5.80;5.23;;;6.50;99.90;;;;;;5031385;28;20286;-61
2023/12/26 10:29:52;;;;;;;6.70;6.10;;;6.40;99.90;;;;;;5030544;28;20205;-61
2023/12/26 10:32:19;;;;;;;5.60;5.10;;;6.50;99.90;;;;;;5030542;28;20239;-61
2023/12/26 10:34:46;;;;;;;5.87;5.37;;;6.60;99.90;;;;;;5033356;28;20218;-61
2023/12/26 10:37:13;;;;;;;5.03;4.73;;;6.70;99.90;;;;;;5034056;28;20228;-61
2023/12/26 10:39:42;;;;;;;5.03;4.73;;;6.70;99.90;;;;;;5039015;28;20262;-61
2023/12/26 10:42:13;;;;;;;9.10;6.53;;;6.90;99.90;;;;;;5028185;28;20313;-61
2023/12/26 10:44:58;;;;;;;6.80;5.87;;;6.90;99.90;;;;;;5030965;28;20590;-61
2023/12/26 10:47:29;;;;;;;7.20;6.60;;;6.80;99.90;;;;;;5033030;28;20219;-61
2023/12/26 10:49:59;;;;;;;6.77;6.07;;;6.80;99.90;;;;;;5033558;28;20204;-61
2023/12/26 10:52:27;;;;;;;6.63;5.97;;;6.90;99.90;;;;;;5030133;28;20199;-61
2023/12/26 10:54:56;;;;;;;6.50;5.97;;;6.90;99.90;;;;;;5033428;28;20719;-61
2023/12/26 10:57:25;;;;;;;6.37;5.87;;;7.00;99.90;;;;;;5033987;28;20269;-61
2023/12/26 11:02:38;;;;;;;6.30;5.70;;;7.00;99.90;;;;;;5030758;28;20595;-61
2023/12/26 11:05:05;;;;;;;6.00;5.50;;;7.00;99.90;;;;;;5032067;28;20208;-61
2023/12/26 11:07:31;;;;;;;5.63;5.10;;;6.90;99.90;;;;;;5040200;28;20212;-61
2023/12/26 11:10:01;;;;;;;6.47;5.53;;;6.80;99.90;;;;;;5033429;28;20198;-61
2023/12/26 11:12:28;;;;;;;6.23;5.77;;;6.80;99.90;;;;;;5032093;28;20205;-61
2023/12/26 11:14:54;;;;;;;5.93;5.43;;;6.80;99.90;;;;;;5042498;28;20574;-61
2023/12/26 11:17:22;;;;;;;6.57;5.27;;;6.70;99.90;;;;;;5043041;28;20225;-60
2023/12/26 11:19:50;;;;;;;7.37;6.73;;;6.80;99.90;;;;;;5034429;28;20238;-61
2023/12/26 11:22:17;;;;;;;5.63;5.30;;;7.00;99.90;;;;;;5039755;28;20817;-61
2023/12/26 11:24:44;;;;;;;6.50;5.90;;;7.10;99.90;;;;;;5034505;28;20552;-61
2023/12/26 11:27:10;;;;;;;7.60;6.90;;;7.20;99.90;;;;;;5039019;28;20224;-61
2023/12/26 11:29:36;;;;;;;9.73;8.80;;;7.30;99.90;;;;;;5044132;28;20204;-61
2023/12/26 11:32:03;;;;;;;10.17;9.17;;;7.30;99.90;;;;;;5042990;28;20262;-61
2023/12/26 11:34:29;;;;;;;9.70;8.20;;;7.40;99.90;;;;;;5037886;28;20204;-61
2023/12/26 11:36:59;;;;;;;9.50;8.50;;;7.40;99.90;;;;;;5041187;28;20708;-61
2023/12/26 11:39:27;;;;;;;7.77;7.07;;;7.40;99.90;;;;;;5036157;28;20262;-61
2023/12/26 11:41:57;;;;;;;9.93;7.67;;;7.50;99.90;;;;;;5045923;28;20224;-61
2023/12/26 11:44:23;;;;;;;8.03;6.53;;;7.50;99.90;;;;;;5033066;28;20725;-66
2023/12/26 11:46:59;;;;;;;6.53;5.87;;;7.50;99.90;;;;;;5036382;28;20212;-68
2023/12/26 11:49:25;;;;;;;6.40;5.77;;;7.40;99.90;;;;;;5028545;28;20209;-68
2023/12/26 11:51:55;;;;;;;6.67;6.03;;;7.30;99.90;;;;;;5032883;28;20218;-72
2023/12/26 11:54:23;;;;;;;7.47;6.40;;;7.30;99.90;;;;;;5037458;28;20208;-70
2023/12/26 11:56:49;;;;;;;7.03;6.43;;;7.20;99.90;;;;;;5031955;28;20227;-69
2023/12/26 11:59:15;;;;;;;5.77;5.20;;;7.10;99.90;;;;;;5028737;28;20659;-70
2023/12/26 12:01:42;;;;;;;6.73;5.67;;;7.10;99.90;;;;;;5025879;28;20626;-68
2023/12/26 12:04:08;;;;;;;7.00;6.40;;;7.50;99.90;;;;;;5028903;28;20205;-69
2023/12/26 12:06:34;;;;;;;6.87;5.70;;;7.30;99.90;;;;;;5035264;28;20607;-69
2023/12/26 12:09:04;;;;;;;6.20;5.60;;;7.40;99.90;;;;;;5032218;28;20204;-69
2023/12/26 12:11:32;;;;;;;7.03;5.97;;;7.50;99.90;;;;;;5032910;28;20196;-68
2023/12/26 12:13:58;;;;;;;5.97;5.57;;;7.50;99.90;;;;;;5025791;28;20589;-65
2023/12/26 12:16:25;;;;;;;6.53;6.00;;;7.50;99.90;;;;;;5033251;28;20284;-65
2023/12/26 12:19:01;;;;;;;8.10;5.73;;;7.50;99.90;;;;;;5033267;28;20575;-68
2023/12/26 12:21:37;;;;;;;6.23;5.80;;;7.50;99.90;;;;;;5035724;28;20234;-66
2023/12/26 12:24:04;;;;;;;6.93;6.10;;;7.50;99.90;;;;;;5038800;28;20240;-64
2023/12/26 12:26:59;;;;;;;8.73;6.47;;;7.50;99.90;;;;;;5033720;28;20607;-66
2023/12/26 12:29:25;;;;;;;6.47;5.87;;;7.50;99.90;;;;;;5032943;28;20204;-68
2023/12/26 12:32:20;;;;;;;11.50;8.63;;;7.50;99.90;;;;;;5032436;28;20242;-65
2023/12/26 12:35:10;;;;;;;13.20;8.50;;;7.50;99.90;;;;;;5033658;28;20206;-67
2023/12/26 12:37:37;;;;;;;11.90;7.57;;;7.60;99.90;;;;;;5026109;28;20217;-64
2023/12/26 12:40:04;;;;;;;9.50;7.10;;;7.60;99.90;;;;;;5033682;28;20669;-63
2023/12/26 12:42:33;;;;;;;8.30;7.50;;;7.60;99.90;;;;;;5035023;28;20228;-60
2023/12/26 12:45:00;;;;;;;7.13;6.17;;;7.70;99.90;;;;;;5032800;28;20255;-63
2023/12/26 12:47:27;;;;;;;10.43;6.97;;;7.70;99.90;;;;;;5032135;28;20288;-62
2023/12/26 12:49:54;;;;;;;7.40;6.50;;;7.60;99.90;;;;;;5032186;28;20686;-63
2023/12/26 12:52:21;;;;;;;7.10;6.40;;;7.60;99.90;;;;;;5032725;28;20188;-62
2023/12/26 12:54:47;;;;;;;7.47;6.70;;;7.50;99.90;;;;;;5032890;28;20281;-64
2023/12/26 12:57:13;;;;;;;7.43;6.47;;;7.50;99.90;;;;;;5032687;28;20225;-65
2023/12/26 12:59:41;;;;;;;7.27;6.43;;;7.30;99.90;;;;;;5032333;28;20230;-61
2023/12/26 13:02:10;;;;;;;11.17;10.00;;;7.30;99.90;;;;;;5032492;28;20266;-64